USTRANSCOM 7742


LICZ
NAS Sigonella
Sigonella, IT
LERT
Naval Station Rota
Rota, ES

Activity Log

Date Flight Route Aircraft Duration
No Flights Yet

Route Details

Aircraft Information
Primary: Boeing 757-200SF
Backup: Not Available
Route Data
Distance: 1021nm
Sched. Duration: 3h 29m
Avg. Duration: 0h 00m (-330m)
Times Flown: 0
Recm'd Route: NELDA5U NELDA N573 BASMO M980 TBS UA31 ALR A411 MOS A44 MGA
Planned Altitude: 36,000ft
Origin Wx: LICZ 231355Z 08012KT CAVOK 18/03 Q1027 RMK SKC VIS MIN 9999 WIND THR28 09010KT WIND THR10 08011KT A3035 BLU
Dest. Wx: LERT 231400Z 12018KT 090V150 CAVOK 21/08 Q1028 NOSIG
Notes: USTRANSCOM CONTRACT FLIGHT

Financial History
Total Freight: 0lbs
Average Load: 0lbs/flt
Fuel Used: 0lbs
Avg. Fuel Used: 0lbs/flt
Fuel Expense: $0
Avg. Fuel Expense: $0
Avg. Fuel Cost: $0/lbs
Total Gross Income: $0
Pilot Pay: $0
Total Expenses: $0
Total Revenue: $0
Average Revenue: $0